Time;durP1;ratioP1;P1;durP2;ratioP2;P2;SDS_P1;SDS_P2;PMS_P1;PMS_P2;Temp;Humidity;BMP_temperature;BMP_pressure;BME280_temperature;BME280_humidity;BME280_pressure;Samples;Min_cycle;Max_cycle;Signal;HPM_P1;HPM_P2
2021/09/23 00:01:44;;;;;;;4.80;4.30;;;14.60;99.90;;;;;;5014410;28;20729;-74
2021/09/23 00:04:17;;;;;;;5.37;4.30;;;14.50;99.90;;;;;;5014480;28;20171;-74
2021/09/23 00:06:43;;;;;;;5.22;4.72;;;14.50;99.90;;;;;;4964568;28;20182;-74
2021/09/23 00:09:09;;;;;;;4.68;4.20;;;14.50;99.90;;;;;;5013875;28;20214;-74
2021/09/23 00:11:34;;;;;;;4.23;3.83;;;14.40;99.90;;;;;;4996872;28;20222;-74
2021/09/23 00:14:02;;;;;;;5.07;3.60;;;14.40;99.90;;;;;;5014391;28;20213;-74
2021/09/23 00:16:28;;;;;;;6.60;4.50;;;14.40;99.90;;;;;;4996751;28;20182;-74
2021/09/23 00:18:54;;;;;;;5.33;4.47;;;14.40;99.90;;;;;;5013696;28;20198;-74
2021/09/23 00:21:19;;;;;;;4.40;3.90;;;14.40;99.90;;;;;;5014082;28;20194;-74
2021/09/23 00:23:45;;;;;;;5.60;4.47;;;14.30;99.90;;;;;;5014155;28;20197;-75
2021/09/23 00:26:12;;;;;;;5.50;4.75;;;14.30;99.90;;;;;;5013930;28;20249;-75
2021/09/23 00:28:39;;;;;;;3.85;3.55;;;14.30;99.90;;;;;;5013911;28;20668;-74
2021/09/23 00:31:05;;;;;;;4.45;4.05;;;14.20;99.90;;;;;;4996200;28;20205;-74
2021/09/23 00:33:31;;;;;;;5.80;4.55;;;14.20;99.90;;;;;;5022426;28;20773;-74
2021/09/23 00:35:56;;;;;;;4.30;3.90;;;14.20;99.90;;;;;;4996370;28;20256;-75
2021/09/23 00:38:22;;;;;;;4.90;4.27;;;14.20;99.90;;;;;;5013035;28;20956;-75
2021/09/23 00:40:48;;;;;;;6.07;4.13;;;14.20;99.90;;;;;;4996463;28;20593;-74
2021/09/23 00:43:14;;;;;;;6.50;4.90;;;14.10;99.90;;;;;;5013689;28;20177;-75
2021/09/23 00:45:40;;;;;;;4.53;3.87;;;14.10;99.90;;;;;;4996016;28;20561;-74
2021/09/23 00:48:06;;;;;;;6.67;4.27;;;14.10;99.90;;;;;;5013653;28;20182;-75
2021/09/23 00:50:35;;;;;;;6.28;4.15;;;14.00;99.90;;;;;;4963396;28;20206;-74
2021/09/23 00:53:07;;;;;;;6.30;4.35;;;14.00;99.90;;;;;;4996123;28;20174;-75
2021/09/23 00:55:33;;;;;;;4.45;4.03;;;14.00;99.90;;;;;;4995947;28;20221;-74
2021/09/23 00:58:00;;;;;;;5.20;4.35;;;14.00;99.90;;;;;;4995832;28;20206;-75
2021/09/23 01:00:26;;;;;;;4.68;4.28;;;14.00;99.90;;;;;;4995809;28;20283;-75
2021/09/23 01:03:00;;;;;;;4.93;4.05;;;14.00;99.90;;;;;;4995710;28;20286;-75
2021/09/23 01:05:27;;;;;;;5.00;4.50;;;13.90;99.90;;;;;;4995701;28;20174;-75
2021/09/23 01:07:54;;;;;;;4.65;3.90;;;13.90;99.90;;;;;;5013000;28;20174;-75
2021/09/23 01:10:20;;;;;;;4.73;4.23;;;13.90;99.90;;;;;;4998694;28;20197;-75
2021/09/23 01:12:46;;;;;;;5.43;4.03;;;13.90;99.90;;;;;;4995552;28;20221;-74
2021/09/23 01:15:15;;;;;;;4.13;3.70;;;13.90;99.90;;;;;;4979494;28;20209;-74
2021/09/23 01:17:43;;;;;;;5.80;4.45;;;13.90;99.90;;;;;;4995523;28;20206;-74
2021/09/23 01:20:09;;;;;;;4.60;4.10;;;13.90;99.90;;;;;;4995219;28;20174;-75
2021/09/23 01:22:35;;;;;;;5.00;4.30;;;13.80;99.90;;;;;;4995342;28;20173;-75
2021/09/23 01:25:18;;;;;;;5.38;4.88;;;13.90;99.90;;;;;;5013040;28;20254;-75
2021/09/23 01:27:45;;;;;;;5.65;3.70;;;13.80;99.90;;;;;;4995334;28;20562;-75
2021/09/23 01:30:15;;;;;;;3.88;3.58;;;13.80;99.90;;;;;;4978708;28;20538;-75
2021/09/23 01:32:45;;;;;;;5.50;4.32;;;13.80;99.90;;;;;;4995169;28;20243;-75
2021/09/23 01:35:12;;;;;;;6.57;4.60;;;13.80;99.90;;;;;;4995296;28;20186;-75
2021/09/23 01:37:39;;;;;;;10.48;5.07;;;13.80;99.90;;;;;;4995032;28;20205;-74
2021/09/23 01:40:09;;;;;;;4.95;3.78;;;13.80;99.90;;;;;;4994710;28;20708;-75
2021/09/23 01:42:34;;;;;;;6.85;4.53;;;13.80;99.90;;;;;;4995280;28;20170;-75
2021/09/23 01:45:01;;;;;;;6.27;4.50;;;13.80;99.90;;;;;;4994893;28;20162;-75
2021/09/23 01:47:32;;;;;;;5.22;3.95;;;13.70;99.90;;;;;;4997902;28;20668;-74
2021/09/23 01:49:58;;;;;;;4.72;3.75;;;13.70;99.90;;;;;;4993900;28;20171;-74
2021/09/23 01:52:26;;;;;;;4.80;4.35;;;13.70;99.90;;;;;;5012472;28;20190;-74
2021/09/23 01:55:12;;;;;;;4.38;3.97;;;13.60;99.90;;;;;;4978722;28;20260;-74
2021/09/23 01:57:38;;;;;;;9.10;4.82;;;13.60;99.90;;;;;;5012366;28;20773;-74
2021/09/23 02:00:05;;;;;;;7.43;4.63;;;13.50;99.90;;;;;;4994467;28;20201;-75
2021/09/23 02:02:39;;;;;;;8.30;5.82;;;13.50;99.90;;;;;;4994906;28;20208;-74
2021/09/23 02:05:08;;;;;;;6.47;5.35;;;13.50;99.90;;;;;;4994622;28;20170;-74
2021/09/23 02:07:34;;;;;;;4.45;3.80;;;13.40;99.90;;;;;;4994681;28;20229;-75
2021/09/23 02:10:06;;;;;;;6.43;4.45;;;13.40;99.90;;;;;;4994130;28;20174;-74
2021/09/23 02:12:32;;;;;;;4.57;3.95;;;13.40;99.90;;;;;;4978293;28;20228;-75
2021/09/23 02:14:58;;;;;;;5.45;4.38;;;13.40;99.90;;;;;;4994315;28;20185;-75
2021/09/23 02:17:25;;;;;;;5.95;4.45;;;13.40;99.90;;;;;;4994527;28;20198;-74
2021/09/23 02:19:56;;;;;;;5.63;4.93;;;13.30;99.90;;;;;;4994188;28;20220;-75
2021/09/23 02:22:23;;;;;;;5.93;4.57;;;13.40;99.90;;;;;;4994271;28;20194;-75
2021/09/23 02:24:52;;;;;;;4.93;4.38;;;13.40;99.90;;;;;;4998936;28;20178;-74
2021/09/23 02:27:19;;;;;;;6.13;4.50;;;13.40;99.90;;;;;;4994422;28;20167;-74
2021/09/23 02:29:45;;;;;;;4.47;3.70;;;13.40;99.90;;;;;;4994194;28;20178;-74
2021/09/23 02:32:11;;;;;;;4.70;3.83;;;13.40;99.90;;;;;;4994233;28;20556;-74
2021/09/23 02:34:38;;;;;;;4.85;4.35;;;13.40;99.90;;;;;;4978336;28;20174;-74
2021/09/23 02:37:04;;;;;;;5.95;4.15;;;13.40;99.90;;;;;;4994163;28;20714;-74
2021/09/23 02:39:30;;;;;;;5.97;4.57;;;13.40;99.90;;;;;;4993965;28;20261;-74
2021/09/23 02:41:56;;;;;;;7.10;4.70;;;13.40;99.90;;;;;;4994331;28;20603;-74
2021/09/23 02:44:22;;;;;;;4.93;4.37;;;13.40;99.90;;;;;;4978206;28;20178;-74
2021/09/23 02:46:47;;;;;;;5.60;4.53;;;13.30;99.90;;;;;;4994279;28;20170;-74
2021/09/23 02:49:13;;;;;;;9.17;4.70;;;13.30;99.90;;;;;;4993650;28;20654;-74
2021/09/23 02:51:39;;;;;;;5.70;4.63;;;13.30;99.90;;;;;;4994370;28;20873;-74
2021/09/23 02:54:05;;;;;;;7.73;4.20;;;13.30;99.90;;;;;;4978026;28;20654;-74
2021/09/23 02:56:30;;;;;;;5.23;4.43;;;13.30;99.90;;;;;;4978025;28;20541;-74
2021/09/23 02:58:56;;;;;;;6.72;4.70;;;13.30;99.90;;;;;;4993727;28;20646;-74
2021/09/23 03:01:22;;;;;;;4.63;4.10;;;13.30;99.90;;;;;;5001553;28;20214;-74
2021/09/23 03:03:48;;;;;;;6.90;5.20;;;13.30;99.90;;;;;;4998103;28;20505;-74
2021/09/23 03:06:14;;;;;;;5.60;4.43;;;13.30;99.90;;;;;;4998027;28;20609;-74
2021/09/23 03:08:40;;;;;;;5.32;4.25;;;13.30;99.90;;;;;;4997533;28;20678;-74
2021/09/23 03:11:06;;;;;;;4.60;4.20;;;13.30;99.90;;;;;;4997916;28;20281;-74
2021/09/23 03:13:32;;;;;;;7.72;4.63;;;13.30;99.90;;;;;;4981556;28;20182;-74
2021/09/23 03:15:59;;;;;;;4.90;4.40;;;13.40;99.90;;;;;;4997902;28;20181;-74
2021/09/23 03:18:24;;;;;;;4.20;3.80;;;13.30;99.90;;;;;;4997415;28;20609;-74
2021/09/23 03:20:51;;;;;;;4.40;3.67;;;13.30;99.90;;;;;;4997704;28;20740;-74
2021/09/23 03:23:17;;;;;;;4.63;3.90;;;13.30;99.90;;;;;;4997542;28;20169;-74
2021/09/23 03:25:43;;;;;;;4.67;4.23;;;13.30;99.90;;;;;;4981490;28;20249;-74
2021/09/23 03:28:10;;;;;;;4.05;3.65;;;13.30;99.90;;;;;;5015057;28;20565;-74
2021/09/23 03:30:36;;;;;;;6.43;5.05;;;13.30;99.90;;;;;;4997478;28;20197;-74
2021/09/23 03:33:03;;;;;;;5.45;4.53;;;13.30;99.90;;;;;;5015113;28;20198;-74
2021/09/23 03:35:29;;;;;;;5.53;4.70;;;13.30;99.90;;;;;;5015218;28;20532;-74
2021/09/23 03:37:55;;;;;;;9.32;4.65;;;13.20;99.90;;;;;;5003378;28;20198;-75
2021/09/23 03:40:20;;;;;;;4.37;3.97;;;13.20;99.90;;;;;;5015317;28;20182;-73
2021/09/23 03:42:46;;;;;;;4.90;4.27;;;13.20;99.90;;;;;;5015110;28;20220;-74
2021/09/23 03:45:12;;;;;;;5.45;4.18;;;13.20;99.90;;;;;;5014745;28;20297;-74
2021/09/23 03:47:39;;;;;;;5.78;5.18;;;13.10;99.90;;;;;;4997455;28;20554;-73
2021/09/23 03:50:06;;;;;;;6.07;5.50;;;13.10;99.90;;;;;;4980524;28;20181;-74
2021/09/23 03:52:32;;;;;;;5.20;4.70;;;13.10;99.90;;;;;;4997310;28;20183;-74
2021/09/23 03:54:57;;;;;;;5.72;3.83;;;13.10;99.90;;;;;;4997117;28;20261;-74
2021/09/23 03:57:23;;;;;;;4.60;4.20;;;13.10;99.90;;;;;;4980873;28;20352;-74
2021/09/23 03:59:49;;;;;;;3.95;3.60;;;13.10;99.90;;;;;;4980489;28;20170;-74
2021/09/23 04:02:15;;;;;;;5.03;4.07;;;13.10;99.90;;;;;;4980700;28;20217;-74
2021/09/23 04:04:41;;;;;;;4.50;3.87;;;13.10;99.90;;;;;;4980563;28;20571;-74
2021/09/23 04:07:07;;;;;;;5.63;4.53;;;13.10;99.90;;;;;;5014382;28;20174;-74
2021/09/23 04:09:36;;;;;;;4.82;4.35;;;13.00;99.90;;;;;;4996550;28;20228;-74
2021/09/23 04:12:02;;;;;;;5.03;4.18;;;13.00;99.90;;;;;;4996007;28;20201;-74
2021/09/23 04:14:29;;;;;;;4.18;3.88;;;13.00;99.90;;;;;;4997526;28;20178;-74
2021/09/23 04:16:55;;;;;;;6.47;4.73;;;13.10;99.90;;;;;;5000096;28;20178;-74
2021/09/23 04:19:21;;;;;;;5.15;4.50;;;13.00;99.90;;;;;;4996498;28;20666;-74
2021/09/23 04:21:47;;;;;;;3.70;3.40;;;13.00;99.90;;;;;;4996795;28;20225;-74
2021/09/23 04:24:14;;;;;;;5.60;5.00;;;13.00;99.90;;;;;;4980368;28;20170;-74
2021/09/23 04:26:42;;;;;;;5.25;4.40;;;13.00;99.90;;;;;;4996630;28;20622;-74
2021/09/23 04:29:08;;;;;;;4.10;3.70;;;13.00;99.90;;;;;;4996568;28;20233;-74
2021/09/23 04:31:34;;;;;;;4.45;3.65;;;13.00;99.90;;;;;;4996348;28;20224;-74
2021/09/23 04:34:00;;;;;;;4.20;3.80;;;13.00;99.90;;;;;;4996546;28;20175;-74
2021/09/23 04:36:26;;;;;;;4.97;4.13;;;13.00;99.90;;;;;;4996288;28;20182;-74
2021/09/23 04:38:52;;;;;;;5.00;4.03;;;13.00;99.90;;;;;;4996220;28;20625;-74
2021/09/23 04:41:18;;;;;;;3.47;3.17;;;13.00;99.90;;;;;;4996233;28;20597;-74
2021/09/23 04:43:46;;;;;;;4.47;4.07;;;13.00;99.90;;;;;;4996374;28;20250;-74
2021/09/23 04:46:20;;;;;;;5.47;4.25;;;13.00;99.90;;;;;;4995943;28;20583;-74
2021/09/23 04:48:51;;;;;;;4.72;3.65;;;13.00;99.90;;;;;;4996160;28;20185;-74
2021/09/23 04:51:19;;;;;;;7.25;4.47;;;13.00;99.90;;;;;;4997983;28;20210;-75
2021/09/23 04:53:45;;;;;;;7.45;4.60;;;13.00;99.90;;;;;;5000950;28;20178;-75
2021/09/23 04:56:10;;;;;;;6.23;4.70;;;12.90;99.90;;;;;;4996070;28;20534;-75
2021/09/23 04:58:36;;;;;;;5.50;3.87;;;12.90;99.90;;;;;;4995966;28;20238;-75
2021/09/23 05:01:02;;;;;;;3.73;3.40;;;12.90;99.90;;;;;;4995790;28;20190;-75
2021/09/23 05:03:28;;;;;;;6.13;5.00;;;12.90;99.90;;;;;;5013132;28;20178;-75
2021/09/23 05:05:54;;;;;;;5.77;4.23;;;12.90;99.90;;;;;;4995584;28;20169;-75
2021/09/23 05:08:23;;;;;;;6.30;4.50;;;12.90;99.90;;;;;;4995660;28;20573;-75
2021/09/23 05:10:49;;;;;;;6.47;5.63;;;12.90;99.90;;;;;;4995608;28;20194;-75
2021/09/23 05:13:16;;;;;;;5.40;3.95;;;12.90;99.90;;;;;;5013212;28;20268;-75
2021/09/23 05:15:42;;;;;;;6.95;4.38;;;12.90;99.90;;;;;;5013040;28;20179;-75
2021/09/23 05:18:13;;;;;;;7.25;4.72;;;12.90;99.90;;;;;;5013102;28;20281;-75
2021/09/23 05:20:39;;;;;;;5.68;4.25;;;12.90;99.90;;;;;;4995586;28;20205;-75
2021/09/23 05:23:05;;;;;;;5.53;4.30;;;12.90;99.90;;;;;;5012938;28;20162;-75
2021/09/23 05:25:31;;;;;;;6.32;4.40;;;12.90;99.90;;;;;;5012343;28;20167;-75
2021/09/23 05:27:57;;;;;;;4.80;4.20;;;13.00;99.90;;;;;;5013020;28;20221;-75
2021/09/23 05:30:24;;;;;;;4.70;3.80;;;13.00;99.90;;;;;;4999728;28;20198;-75
2021/09/23 05:32:50;;;;;;;5.32;4.65;;;13.00;99.90;;;;;;4995157;28;20581;-74
2021/09/23 05:35:16;;;;;;;7.25;4.60;;;13.00;99.90;;;;;;5012785;28;20650;-75
2021/09/23 05:37:44;;;;;;;5.55;4.07;;;13.00;99.90;;;;;;4994966;28;20695;-74
2021/09/23 05:40:11;;;;;;;8.50;5.68;;;13.10;99.90;;;;;;4994946;28;20240;-75
2021/09/23 05:42:37;;;;;;;4.10;3.70;;;13.10;99.90;;;;;;5012676;28;20531;-75
2021/09/23 05:45:06;;;;;;;5.38;4.65;;;13.10;99.90;;;;;;4979016;28;20922;-74
2021/09/23 05:47:33;;;;;;;7.05;4.60;;;13.10;99.90;;;;;;5012578;28;20178;-75
2021/09/23 05:49:58;;;;;;;4.68;4.28;;;13.20;99.90;;;;;;5012643;28;20261;-74
2021/09/23 05:52:24;;;;;;;4.47;4.07;;;13.20;99.90;;;;;;5012315;28;20289;-74
2021/09/23 05:54:50;;;;;;;7.23;5.00;;;13.20;99.90;;;;;;4995063;28;20189;-74
2021/09/23 05:57:20;;;;;;;7.57;4.50;;;13.30;99.90;;;;;;5012664;28;21384;-75
2021/09/23 05:59:46;;;;;;;5.55;4.38;;;13.30;99.90;;;;;;5031910;28;20264;-75
2021/09/23 06:02:12;;;;;;;6.70;5.10;;;13.30;99.90;;;;;;5031817;28;20269;-74
2021/09/23 06:04:38;;;;;;;5.53;4.50;;;13.40;99.90;;;;;;5033443;28;20564;-73
2021/09/23 06:07:03;;;;;;;4.70;4.20;;;13.40;99.90;;;;;;5032406;28;20193;-74
2021/09/23 06:09:29;;;;;;;6.10;5.13;;;13.50;99.90;;;;;;5031354;28;20617;-73
2021/09/23 06:11:55;;;;;;;4.30;3.70;;;13.50;99.90;;;;;;5014017;28;20196;-73
2021/09/23 06:14:21;;;;;;;5.43;4.32;;;13.50;99.90;;;;;;5033563;28;20532;-73
2021/09/23 06:16:47;;;;;;;4.83;3.80;;;13.60;99.90;;;;;;5031455;28;20176;-73
2021/09/23 06:19:13;;;;;;;5.27;4.17;;;13.60;99.90;;;;;;5030838;28;20193;-73
2021/09/23 06:26:51;;;;;;;8.50;4.38;;;13.70;99.90;;;;;;4946644;28;20183;-75
2021/09/23 06:29:43;;;;;;;6.68;4.63;;;13.80;99.90;;;;;;4966741;28;20525;-74
2021/09/23 06:32:10;;;;;;;4.85;4.35;;;13.90;99.90;;;;;;5013273;28;20574;-74
2021/09/23 06:34:36;;;;;;;7.23;4.97;;;13.90;99.90;;;;;;5013238;28;20170;-74
2021/09/23 06:37:02;;;;;;;6.03;4.47;;;14.00;99.90;;;;;;4997735;28;20170;-74
2021/09/23 06:39:27;;;;;;;7.10;5.30;;;14.10;99.90;;;;;;5031128;28;20204;-74
2021/09/23 06:41:55;;;;;;;7.57;4.83;;;14.10;99.90;;;;;;5031489;28;20951;-74
2021/09/23 06:44:21;;;;;;;5.30;4.63;;;14.30;99.90;;;;;;5011701;28;20205;-73
2021/09/23 06:46:47;;;;;;;6.70;4.47;;;14.30;99.90;;;;;;5011934;28;20167;-72
2021/09/23 06:49:13;;;;;;;6.80;4.77;;;14.40;99.90;;;;;;5011869;28;20254;-73
2021/09/23 06:51:38;;;;;;;5.20;4.40;;;14.50;99.90;;;;;;4994010;28;20685;-73
2021/09/23 06:54:04;;;;;;;6.40;4.50;;;14.70;99.90;;;;;;4994311;28;20185;-73
2021/09/23 06:56:30;;;;;;;10.00;4.53;;;14.80;99.90;;;;;;5011604;28;20672;-73
2021/09/23 06:58:55;;;;;;;6.10;5.50;;;14.90;99.90;;;;;;5011379;28;20204;-72
2021/09/23 07:01:30;;;;;;;5.55;4.20;;;15.00;99.90;;;;;;4995239;28;20182;-73
2021/09/23 07:04:14;;;;;;;4.68;4.18;;;15.20;99.90;;;;;;4994540;28;20167;-73
2021/09/23 07:07:01;;;;;;;7.53;4.53;;;15.30;99.90;;;;;;5000874;28;20186;-73
2021/09/23 07:09:39;;;;;;;6.22;3.65;;;15.50;99.90;;;;;;4994198;28;20188;-73
2021/09/23 07:12:13;;;;;;;7.07;3.53;;;15.60;99.90;;;;;;4994048;28;20186;-73
2021/09/23 07:14:39;;;;;;;5.00;3.60;;;15.80;99.90;;;;;;5011546;28;20969;-73
2021/09/23 07:17:05;;;;;;;4.30;3.70;;;16.00;99.90;;;;;;4993904;28;20576;-73
2021/09/23 07:19:32;;;;;;;3.87;3.23;;;16.20;99.90;;;;;;4977507;28;21269;-71
2021/09/23 07:21:58;;;;;;;4.20;3.23;;;16.50;99.90;;;;;;4993654;28;20593;-71
2021/09/23 07:24:25;;;;;;;4.93;4.00;;;17.00;99.90;;;;;;5011542;28;20565;-72
2021/09/23 07:26:51;;;;;;;4.50;3.33;;;17.70;99.90;;;;;;4993956;28;21117;-72
2021/09/23 07:29:18;;;;;;;6.13;3.30;;;18.60;99.90;;;;;;4993734;28;20616;-72
2021/09/23 07:31:44;;;;;;;5.10;3.37;;;19.50;99.90;;;;;;4993912;28;20972;-72
2021/09/23 07:34:11;;;;;;;3.50;2.80;;;20.50;99.90;;;;;;4993889;28;20712;-72
2021/09/23 07:36:37;;;;;;;7.90;3.10;;;21.60;99.90;;;;;;5011295;28;20615;-72
2021/09/23 07:39:06;;;;;;;4.00;2.73;;;22.60;99.90;;;;;;5009953;28;20742;-72
2021/09/23 07:41:44;;;;;;;4.83;3.00;;;23.50;99.90;;;;;;5011285;28;20198;-72
2021/09/23 07:44:11;;;;;;;6.07;1.90;;;24.50;99.90;;;;;;4993577;28;20588;-72
2021/09/23 07:46:38;;;;;;;3.90;2.20;;;25.60;99.90;;;;;;4993835;28;20561;-72
2021/09/23 07:49:04;;;;;;;3.00;2.30;;;26.50;99.90;;;;;;4996893;28;21077;-72
2021/09/23 07:51:31;;;;;;;5.60;1.80;;;27.30;99.90;;;;;;5014715;28;20608;-72
2021/09/23 07:53:57;;;;;;;5.97;1.93;;;28.10;99.90;;;;;;4980738;28;20674;-72
2021/09/23 07:56:23;;;;;;;2.70;1.83;;;28.70;99.90;;;;;;5009553;28;20929;-72
2021/09/23 07:58:49;;;;;;;2.67;1.70;;;29.30;99.90;;;;;;5016302;28;21011;-72
2021/09/23 08:01:15;;;;;;;2.87;2.13;;;29.80;99.90;;;;;;5033931;28;20707;-73
2021/09/23 08:03:41;;;;;;;3.30;2.63;;;30.30;99.90;;;;;;5000285;28;20572;-72
2021/09/23 08:06:07;;;;;;;7.10;2.20;;;30.60;99.90;;;;;;5016515;28;20583;-72
2021/09/23 08:08:34;;;;;;;3.80;2.30;;;31.10;99.90;;;;;;5016373;28;20265;-72
2021/09/23 08:11:00;;;;;;;3.00;2.13;;;31.50;99.70;;;;;;5016561;28;20637;-73
2021/09/23 08:13:27;;;;;;;4.00;1.80;;;31.80;98.40;;;;;;5016570;28;21322;-73
2021/09/23 08:15:55;;;;;;;4.23;1.97;;;32.10;97.00;;;;;;5016419;28;20581;-74
2021/09/23 08:18:32;;;;;;;3.20;1.70;;;32.40;96.00;;;;;;5033967;28;20632;-74
2021/09/23 08:21:13;;;;;;;2.67;1.80;;;32.80;95.10;;;;;;5016395;28;20607;-73
2021/09/23 08:23:39;;;;;;;2.90;1.60;;;33.30;93.90;;;;;;5015977;28;20619;-74
2021/09/23 08:26:05;;;;;;;3.73;1.80;;;33.50;92.70;;;;;;5015971;28;20199;-73
2021/09/23 08:28:32;;;;;;;3.20;1.80;;;33.90;91.70;;;;;;5016093;28;20641;-74
2021/09/23 08:30:59;;;;;;;3.40;1.87;;;34.30;90.70;;;;;;5016115;28;20204;-74
2021/09/23 08:33:25;;;;;;;3.53;2.20;;;34.80;89.50;;;;;;5000434;28;20933;-74
2021/09/23 08:35:51;;;;;;;2.30;1.73;;;35.20;86.70;;;;;;5016376;28;20576;-74
2021/09/23 08:38:19;;;;;;;3.20;2.03;;;35.50;83.50;;;;;;4999998;28;20208;-74
2021/09/23 08:40:47;;;;;;;1.70;1.50;;;35.80;81.50;;;;;;5017786;28;20199;-74
2021/09/23 08:43:16;;;;;;;3.93;1.33;;;36.20;78.50;;;;;;5016010;28;21250;-74
2021/09/23 08:45:41;;;;;;;11.97;2.00;;;36.40;77.10;;;;;;5034329;28;21111;-74
2021/09/23 08:48:09;;;;;;;2.17;1.27;;;36.60;73.30;;;;;;5016512;28;20564;-74
2021/09/23 08:50:35;;;;;;;1.80;1.50;;;36.80;70.60;;;;;;5017737;28;20209;-74
2021/09/23 08:53:02;;;;;;;3.20;1.97;;;36.90;68.70;;;;;;5033238;28;21235;-74
2021/09/23 08:55:30;;;;;;;2.70;1.60;;;37.00;66.40;;;;;;5033005;28;20603;-74
2021/09/23 08:58:03;;;;;;;3.20;1.87;;;37.10;64.80;;;;;;5033343;28;20976;-75
2021/09/23 09:00:31;;;;;;;2.60;1.23;;;37.00;62.50;;;;;;5033361;28;20612;-74
2021/09/23 09:03:07;;;;;;;1.90;1.20;;;36.90;61.70;;;;;;5033133;28;20671;-74
2021/09/23 09:05:53;;;;;;;2.17;1.43;;;36.90;60.30;;;;;;5034547;28;20593;-75
2021/09/23 09:08:36;;;;;;;3.17;1.87;;;37.10;60.50;;;;;;5032625;28;20580;-74
2021/09/23 09:11:13;;;;;;;3.53;1.37;;;37.30;59.60;;;;;;5015791;28;21187;-74
2021/09/23 09:13:41;;;;;;;3.87;1.50;;;37.50;58.80;;;;;;5033053;28;20615;-75
2021/09/23 09:16:08;;;;;;;1.97;1.43;;;37.50;57.60;;;;;;5032311;28;21148;-75
2021/09/23 09:18:35;;;;;;;3.40;1.50;;;37.30;56.60;;;;;;5015314;28;20639;-74
2021/09/23 09:21:11;;;;;;;2.80;1.20;;;37.20;55.90;;;;;;5034602;28;21350;-74
2021/09/23 09:23:58;;;;;;;2.80;1.47;;;37.20;55.50;;;;;;5032528;28;20575;-74
2021/09/23 09:26:27;;;;;;;5.37;1.50;;;37.30;55.50;;;;;;5033008;28;20599;-75
2021/09/23 09:28:57;;;;;;;2.77;1.20;;;37.30;54.50;;;;;;5032090;28;20690;-74
2021/09/23 09:31:23;;;;;;;3.60;1.40;;;37.50;54.20;;;;;;5032635;28;20619;-73
2021/09/23 09:33:52;;;;;;;3.33;1.70;;;37.50;53.50;;;;;;5016093;28;20584;-74
2021/09/23 09:36:26;;;;;;;5.73;1.50;;;37.60;52.90;;;;;;5031987;28;20687;-74
2021/09/23 09:38:54;;;;;;;3.00;1.33;;;37.70;52.20;;;;;;5032054;28;20631;-74
2021/09/23 09:41:27;;;;;;;4.03;1.40;;;37.80;51.70;;;;;;5028537;28;20712;-75
2021/09/23 09:43:57;;;;;;;2.43;1.40;;;37.80;50.90;;;;;;5012384;28;20979;-74
2021/09/23 09:46:28;;;;;;;3.20;1.57;;;37.90;50.90;;;;;;5011898;28;20585;-74
2021/09/23 09:48:56;;;;;;;3.00;1.30;;;37.80;50.40;;;;;;5011743;28;20655;-74
2021/09/23 09:51:37;;;;;;;2.67;1.70;;;37.90;50.30;;;;;;5011775;28;21027;-74
2021/09/23 09:54:06;;;;;;;3.80;2.30;;;37.90;50.00;;;;;;5012737;28;20983;-75
2021/09/23 09:56:38;;;;;;;3.93;2.70;;;37.90;49.50;;;;;;5012553;28;20688;-75
2021/09/23 09:59:10;;;;;;;4.63;4.13;;;37.70;48.70;;;;;;5012965;28;21312;-75
2021/09/23 10:01:39;;;;;;;7.23;2.67;;;37.60;48.40;;;;;;5011907;28;20601;-74
2021/09/23 10:04:05;;;;;;;4.37;2.07;;;37.50;48.20;;;;;;5012680;28;20581;-74
2021/09/23 10:06:32;;;;;;;3.33;2.00;;;37.40;48.20;;;;;;5012237;28;20581;-74
2021/09/23 10:08:58;;;;;;;2.87;2.20;;;37.40;47.90;;;;;;5011444;28;20613;-74
2021/09/23 10:11:25;;;;;;;3.73;1.97;;;37.30;47.50;;;;;;4994676;28;21179;-74
2021/09/23 10:13:53;;;;;;;3.37;2.60;;;37.20;46.70;;;;;;4994930;28;20178;-74
2021/09/23 10:16:20;;;;;;;2.77;2.07;;;37.00;46.90;;;;;;4994653;28;20572;-74
2021/09/23 10:18:47;;;;;;;2.60;2.00;;;36.90;46.50;;;;;;5011258;28;20649;-74
2021/09/23 10:21:13;;;;;;;3.47;2.03;;;36.70;47.00;;;;;;5012365;28;20597;-74
2021/09/23 10:23:42;;;;;;;4.27;1.50;;;36.60;47.00;;;;;;5012250;28;20611;-74
2021/09/23 10:26:14;;;;;;;4.17;1.83;;;36.40;47.00;;;;;;5012150;28;21167;-74
2021/09/23 10:28:45;;;;;;;2.50;1.30;;;36.20;46.90;;;;;;4994399;28;20584;-74
2021/09/23 10:31:23;;;;;;;3.10;1.63;;;36.00;47.00;;;;;;5012106;28;20712;-74
2021/09/23 10:33:50;;;;;;;4.00;1.80;;;35.90;46.80;;;;;;5011375;28;21136;-75
2021/09/23 10:36:16;;;;;;;5.60;3.13;;;35.70;46.90;;;;;;5014125;28;20581;-74
2021/09/23 10:38:44;;;;;;;3.13;2.80;;;35.60;47.00;;;;;;4978988;28;20636;-75
2021/09/23 10:41:11;;;;;;;3.73;2.10;;;35.60;47.30;;;;;;5012129;28;21012;-74
2021/09/23 10:43:40;;;;;;;4.83;2.30;;;35.50;47.20;;;;;;5011347;28;20596;-75
2021/09/23 10:46:06;;;;;;;2.30;1.50;;;35.40;47.00;;;;;;5011164;28;20631;-75
2021/09/23 10:48:48;;;;;;;6.13;2.13;;;35.40;46.90;;;;;;5012222;28;21116;-75
2021/09/23 10:51:16;;;;;;;5.60;2.60;;;35.30;46.70;;;;;;5010692;28;20628;-75
2021/09/23 10:53:55;;;;;;;6.00;2.87;;;35.20;46.60;;;;;;5010657;28;20573;-74
2021/09/23 10:56:23;;;;;;;3.50;1.60;;;35.20;46.40;;;;;;4994525;28;20631;-75
2021/09/23 10:58:54;;;;;;;2.10;1.70;;;35.10;46.60;;;;;;5010573;28;20629;-74
2021/09/23 11:01:30;;;;;;;4.07;1.53;;;35.10;46.50;;;;;;5011682;28;20629;-75
2021/09/23 11:03:58;;;;;;;2.67;1.40;;;35.00;45.60;;;;;;5010797;28;20675;-74
2021/09/23 11:06:39;;;;;;;2.77;1.60;;;34.90;45.90;;;;;;5010434;28;20910;-75
2021/09/23 11:09:20;;;;;;;3.43;1.57;;;34.70;45.70;;;;;;5014241;28;20584;-74
2021/09/23 11:11:58;;;;;;;2.20;1.30;;;34.60;45.70;;;;;;5034046;28;20616;-74
2021/09/23 11:14:27;;;;;;;3.07;1.60;;;34.40;45.60;;;;;;5036059;28;20607;-73
2021/09/23 11:16:56;;;;;;;2.77;1.90;;;34.30;45.80;;;;;;5035452;28;20580;-73
2021/09/23 11:19:24;;;;;;;1.77;1.23;;;34.20;45.60;;;;;;5034705;28;20634;-74
2021/09/23 11:21:53;;;;;;;5.67;2.10;;;34.20;46.00;;;;;;5035344;28;20994;-74
2021/09/23 11:24:22;;;;;;;1.90;1.57;;;34.10;45.80;;;;;;5022042;28;20626;-74
2021/09/23 11:26:50;;;;;;;2.00;1.07;;;34.10;45.80;;;;;;5038058;28;20663;-73
2021/09/23 11:29:17;;;;;;;2.67;1.27;;;34.10;45.80;;;;;;5044310;28;20576;-74
2021/09/23 11:31:51;;;;;;;3.00;2.47;;;34.10;45.70;;;;;;5035519;28;20694;-72
2021/09/23 11:34:36;;;;;;;3.80;2.43;;;34.10;45.60;;;;;;5033842;28;20931;-74
2021/09/23 11:37:07;;;;;;;5.20;2.40;;;34.10;45.60;;;;;;5033981;28;21134;-73
2021/09/23 11:39:47;;;;;;;3.00;1.30;;;34.20;45.50;;;;;;5034321;28;21168;-73
2021/09/23 11:42:17;;;;;;;1.60;1.10;;;34.20;45.30;;;;;;5034276;28;20600;-74
2021/09/23 11:44:45;;;;;;;2.53;1.20;;;34.10;45.10;;;;;;5033994;28;20666;-74
2021/09/23 11:47:15;;;;;;;2.83;1.40;;;34.00;45.00;;;;;;5034494;28;21174;-74
2021/09/23 11:49:47;;;;;;;2.20;1.23;;;33.90;44.70;;;;;;5034358;28;20573;-73
2021/09/23 11:52:13;;;;;;;2.50;1.00;;;33.70;44.60;;;;;;5033988;28;20634;-74
2021/09/23 11:54:39;;;;;;;2.60;1.47;;;33.50;44.70;;;;;;5034839;28;20582;-73
2021/09/23 11:57:06;;;;;;;2.37;1.50;;;33.40;44.70;;;;;;5033807;28;20207;-74
2021/09/23 11:59:35;;;;;;;4.07;2.07;;;33.20;44.60;;;;;;5033137;28;20624;-73
2021/09/23 12:02:05;;;;;;;5.03;2.07;;;33.00;44.70;;;;;;5033771;28;20605;-73
2021/09/23 12:04:33;;;;;;;3.40;2.20;;;32.80;44.60;;;;;;5033447;28;20572;-73
2021/09/23 12:07:03;;;;;;;4.87;2.00;;;32.60;44.70;;;;;;5033444;28;21025;-73
2021/09/23 12:09:33;;;;;;;7.20;1.30;;;32.30;44.70;;;;;;5016912;28;20565;-72
2021/09/23 12:11:59;;;;;;;4.50;1.80;;;32.10;44.70;;;;;;5033420;28;20611;-73
2021/09/23 12:14:25;;;;;;;3.17;1.10;;;31.80;45.40;;;;;;5017302;28;20576;-73
2021/09/23 12:17:02;;;;;;;4.00;1.53;;;31.50;44.90;;;;;;5033203;28;20622;-72
2021/09/23 12:19:30;;;;;;;2.80;1.23;;;31.20;45.10;;;;;;5032734;28;20739;-73
2021/09/23 12:22:00;;;;;;;3.53;1.40;;;31.00;45.10;;;;;;5016517;28;20604;-72
2021/09/23 12:24:42;;;;;;;3.30;1.83;;;30.70;45.30;;;;;;5033258;28;20568;-72
2021/09/23 12:27:17;;;;;;;1.70;1.10;;;30.50;45.50;;;;;;5033266;28;20564;-73
2021/09/23 12:29:44;;;;;;;3.83;1.73;;;30.40;45.70;;;;;;5016355;28;20572;-73
2021/09/23 12:32:13;;;;;;;2.83;1.60;;;30.30;45.50;;;;;;5032683;28;20290;-73
2021/09/23 12:34:49;;;;;;;1.83;1.20;;;30.00;45.30;;;;;;5032938;28;20568;-72
2021/09/23 12:37:21;;;;;;;4.33;1.50;;;29.80;45.30;;;;;;5032608;28;20564;-72
2021/09/23 12:40:04;;;;;;;4.00;1.47;;;29.60;45.40;;;;;;5032458;28;20706;-72
2021/09/23 12:42:36;;;;;;;3.30;1.80;;;29.30;45.50;;;;;;5016110;28;20643;-72
2021/09/23 12:45:13;;;;;;;2.47;1.40;;;29.10;45.60;;;;;;5016720;28;20580;-73
2021/09/23 12:47:51;;;;;;;4.73;2.07;;;28.80;45.90;;;;;;5032183;28;21227;-73
2021/09/23 12:50:21;;;;;;;3.83;1.77;;;28.70;46.30;;;;;;5032400;28;20572;-72
2021/09/23 12:52:49;;;;;;;2.70;1.33;;;28.70;46.50;;;;;;5017514;28;20576;-72
2021/09/23 12:55:20;;;;;;;3.70;1.53;;;28.60;46.50;;;;;;5016242;28;20571;-73
2021/09/23 12:57:56;;;;;;;3.10;1.40;;;28.40;46.40;;;;;;5015559;28;20631;-73